Time;durP1;ratioP1;P1;durP2;ratioP2;P2;SDS_P1;SDS_P2;PMS_P1;PMS_P2;Temp;Humidity;BMP_temperature;BMP_pressure;BME280_temperature;BME280_humidity;BME280_pressure;Samples;Min_cycle;Max_cycle;Signal;HPM_P1;HPM_P2
2022/08/31 00:04:31;;;;;;;15.50;14.60;;;;;;;;;;5034885;28;20017;-61
2022/08/31 00:06:56;;;;;;;17.02;16.08;;;;;;;;;;5037830;28;20033;-62
2022/08/31 00:09:22;;;;;;;15.18;14.27;;;;;;;;;;5038683;28;20033;-61
2022/08/31 00:11:47;;;;;;;13.02;12.23;;;;;;;;;;5035072;28;20583;-61
2022/08/31 00:14:13;;;;;;;17.23;16.23;;;;;;;;;;5037270;28;20174;-61
2022/08/31 00:16:41;;;;;;;13.75;12.95;;;;;;;;;;5035663;28;20044;-61
2022/08/31 00:19:06;;;;;;;13.00;12.20;;;;;;;;;;5039193;28;20195;-61
2022/08/31 00:21:32;;;;;;;13.00;12.25;;;;;;;;;;5036030;28;20135;-62
2022/08/31 00:23:58;;;;;;;11.38;10.68;;;;;;;;;;5037953;28;20029;-61
2022/08/31 00:26:23;;;;;;;11.85;11.15;;;;;;;;;;5036374;28;20040;-61
2022/08/31 00:28:50;;;;;;;11.65;10.95;;;;;;;;;;5035770;28;20022;-61
2022/08/31 00:31:15;;;;;;;11.52;10.73;;;;;;;;;;5033682;28;20029;-62
2022/08/31 00:33:41;;;;;;;9.52;8.93;;;;;;;;;;5035357;28;20044;-61
2022/08/31 00:36:10;;;;;;;10.95;10.27;;;;;;;;;;5035838;28;20095;-61
2022/08/31 00:38:35;;;;;;;10.10;9.48;;;;;;;;;;5036355;28;20108;-61
2022/08/31 00:41:01;;;;;;;10.10;9.50;;;;;;;;;;5032966;28;20230;-59
2022/08/31 00:44:00;;;;;;;10.20;9.60;;;;;;;;;;5032643;28;20044;-61
2022/08/31 00:46:29;;;;;;;8.93;8.32;;;;;;;;;;5037306;28;20048;-62
2022/08/31 00:49:09;;;;;;;9.80;9.20;;;;;;;;;;5034457;28;20029;-61
2022/08/31 00:51:42;;;;;;;9.05;8.40;;;;;;;;;;5034161;28;20538;-62
2022/08/31 00:54:10;;;;;;;9.40;8.80;;;;;;;;;;5034775;28;20068;-61
2022/08/31 00:56:38;;;;;;;9.00;8.40;;;;;;;;;;5033654;28;20029;-61
2022/08/31 00:59:03;;;;;;;9.13;8.52;;;;;;;;;;5036062;28;20029;-61
2022/08/31 01:01:29;;;;;;;7.90;7.40;;;;;;;;;;5036688;28;20720;-61
2022/08/31 01:03:56;;;;;;;9.07;8.48;;;;;;;;;;5036905;28;20029;-61
2022/08/31 01:06:22;;;;;;;7.85;7.35;;;;;;;;;;5037662;28;20029;-61
2022/08/31 01:08:48;;;;;;;9.32;8.63;;;;;;;;;;5036860;28;20047;-61
2022/08/31 01:11:15;;;;;;;9.95;9.35;;;;;;;;;;5032072;28;20057;-61
2022/08/31 01:13:43;;;;;;;8.13;7.63;;;;;;;;;;5035220;28;20036;-61
2022/08/31 01:16:13;;;;;;;8.25;7.65;;;;;;;;;;5034875;28;20040;-61
2022/08/31 01:18:40;;;;;;;7.47;6.97;;;;;;;;;;5036603;28;20107;-60
2022/08/31 01:21:06;;;;;;;8.15;7.65;;;;;;;;;;5038150;28;20029;-60
2022/08/31 01:23:37;;;;;;;8.60;8.07;;;;;;;;;;5033622;28;20469;-59
2022/08/31 01:26:05;;;;;;;8.05;7.55;;;;;;;;;;5033149;28;20098;-60
2022/08/31 01:28:30;;;;;;;8.35;7.65;;;;;;;;;;5033134;28;20068;-60
2022/08/31 01:31:20;;;;;;;8.30;7.80;;;;;;;;;;5035219;28;20564;-60
2022/08/31 01:33:46;;;;;;;8.27;7.78;;;;;;;;;;5035856;28;20057;-60
2022/08/31 01:36:13;;;;;;;7.53;7.03;;;;;;;;;;5034572;28;20068;-61
2022/08/31 01:38:38;;;;;;;7.60;7.10;;;;;;;;;;5035488;28;20129;-61
2022/08/31 01:41:05;;;;;;;7.45;6.95;;;;;;;;;;5036012;28;20120;-60
2022/08/31 01:43:32;;;;;;;9.35;8.75;;;;;;;;;;5035985;28;20044;-60
2022/08/31 01:46:02;;;;;;;9.60;8.95;;;;;;;;;;5033444;28;20025;-60
2022/08/31 01:48:28;;;;;;;8.37;7.87;;;;;;;;;;5033063;28;20033;-61
2022/08/31 01:50:53;;;;;;;7.88;7.38;;;;;;;;;;5034848;28;20063;-60
2022/08/31 01:53:19;;;;;;;7.60;7.10;;;;;;;;;;5034799;28;20693;-60
2022/08/31 01:55:45;;;;;;;8.07;7.57;;;;;;;;;;5034870;28;20086;-60
2022/08/31 01:58:11;;;;;;;8.02;7.53;;;;;;;;;;5033390;28;20074;-60
2022/08/31 02:00:37;;;;;;;8.35;7.85;;;;;;;;;;5040502;28;20037;-60
2022/08/31 02:03:04;;;;;;;9.23;8.63;;;;;;;;;;5034132;28;20692;-60
2022/08/31 02:05:30;;;;;;;8.52;7.93;;;;;;;;;;5033780;28;20092;-60
2022/08/31 02:07:56;;;;;;;7.90;7.40;;;;;;;;;;5034146;28;20394;-60
2022/08/31 02:10:22;;;;;;;7.65;7.15;;;;;;;;;;5037005;28;20044;-60
2022/08/31 02:12:48;;;;;;;8.45;7.85;;;;;;;;;;5035805;28;20033;-60
2022/08/31 02:15:14;;;;;;;8.07;7.57;;;;;;;;;;5035384;28;20056;-61
2022/08/31 02:17:39;;;;;;;9.20;8.52;;;;;;;;;;5033708;28;20064;-60
2022/08/31 02:20:07;;;;;;;8.90;8.32;;;;;;;;;;5033048;28;20037;-60
2022/08/31 02:22:32;;;;;;;9.48;8.77;;;;;;;;;;5033980;28;20051;-60
2022/08/31 02:24:58;;;;;;;9.70;9.10;;;;;;;;;;5036890;28;20140;-60
2022/08/31 02:27:23;;;;;;;10.25;9.65;;;;;;;;;;5036989;28;20030;-60
2022/08/31 02:29:49;;;;;;;9.20;8.60;;;;;;;;;;5036994;28;20449;-60
2022/08/31 02:32:14;;;;;;;9.52;8.93;;;;;;;;;;5037640;28;20451;-61
2022/08/31 02:34:39;;;;;;;10.32;9.73;;;;;;;;;;5041173;28;20598;-61
2022/08/31 02:37:05;;;;;;;10.52;9.90;;;;;;;;;;5033617;28;20530;-61
2022/08/31 02:39:31;;;;;;;9.35;8.75;;;;;;;;;;5033083;28;20025;-61
2022/08/31 02:41:56;;;;;;;9.80;9.20;;;;;;;;;;5041366;28;20442;-61
2022/08/31 02:44:21;;;;;;;10.82;10.13;;;;;;;;;;5038643;28;20017;-61
2022/08/31 02:46:47;;;;;;;10.43;9.73;;;;;;;;;;5038185;28;20037;-61
2022/08/31 02:49:13;;;;;;;9.13;8.52;;;;;;;;;;5041701;28;20032;-60
2022/08/31 02:51:40;;;;;;;9.35;8.75;;;;;;;;;;5037992;28;20044;-61
2022/08/31 02:54:06;;;;;;;9.05;8.45;;;;;;;;;;5039434;28;20033;-61
2022/08/31 02:56:32;;;;;;;8.95;8.35;;;;;;;;;;5041804;28;20056;-60
2022/08/31 02:58:58;;;;;;;9.05;8.45;;;;;;;;;;5040195;28;20030;-61
2022/08/31 03:01:25;;;;;;;10.20;9.48;;;;;;;;;;5042109;28;20091;-60
2022/08/31 03:03:51;;;;;;;8.10;7.60;;;;;;;;;;5039151;28;20033;-61
2022/08/31 03:06:17;;;;;;;10.15;9.55;;;;;;;;;;5038744;28;20025;-60
2022/08/31 03:08:43;;;;;;;10.38;9.68;;;;;;;;;;5036610;28;20112;-60
2022/08/31 03:11:09;;;;;;;9.48;8.88;;;;;;;;;;5039272;28;20431;-60
2022/08/31 03:13:36;;;;;;;11.40;10.70;;;;;;;;;;5039916;28;20040;-61
2022/08/31 03:16:02;;;;;;;11.15;10.45;;;;;;;;;;5036759;28;20421;-61
2022/08/31 03:18:28;;;;;;;10.07;9.48;;;;;;;;;;5038784;28;20037;-61
2022/08/31 03:20:53;;;;;;;9.30;8.70;;;;;;;;;;5037995;28;20163;-61
2022/08/31 03:23:18;;;;;;;10.15;9.45;;;;;;;;;;5038487;28;20238;-61
2022/08/31 03:25:44;;;;;;;10.43;9.82;;;;;;;;;;5040503;28;20033;-61
2022/08/31 03:28:10;;;;;;;9.43;8.82;;;;;;;;;;5039648;28;20128;-61
2022/08/31 03:30:35;;;;;;;8.40;7.90;;;;;;;;;;5035359;28;20037;-61
2022/08/31 03:33:01;;;;;;;9.50;8.80;;;;;;;;;;5038165;28;20366;-61
2022/08/31 03:35:26;;;;;;;10.82;10.13;;;;;;;;;;5040585;28;20040;-61
2022/08/31 03:37:52;;;;;;;9.98;9.38;;;;;;;;;;5037111;28;20037;-61
2022/08/31 03:40:17;;;;;;;10.30;9.60;;;;;;;;;;5038641;28;20048;-61
2022/08/31 03:42:43;;;;;;;8.93;8.32;;;;;;;;;;5035479;28;20025;-61
2022/08/31 03:45:09;;;;;;;10.65;9.85;;;;;;;;;;5033093;28;20115;-61
2022/08/31 03:47:36;;;;;;;8.85;8.25;;;;;;;;;;5036650;28;20033;-61
2022/08/31 03:50:03;;;;;;;9.00;8.40;;;;;;;;;;5038692;28;20557;-61
2022/08/31 03:52:29;;;;;;;8.43;7.85;;;;;;;;;;5037023;28;20033;-61
2022/08/31 03:54:54;;;;;;;9.10;8.50;;;;;;;;;;5038675;28;20091;-61
2022/08/31 03:57:20;;;;;;;10.60;9.90;;;;;;;;;;5040788;28;20571;-61
2022/08/31 03:59:45;;;;;;;8.48;7.97;;;;;;;;;;5034155;28;20039;-61
2022/08/31 04:02:11;;;;;;;9.60;9.00;;;;;;;;;;5037317;28;20116;-61
2022/08/31 04:04:36;;;;;;;9.35;8.75;;;;;;;;;;5037587;28;20040;-61
2022/08/31 04:07:01;;;;;;;9.70;9.10;;;;;;;;;;5039582;28;20037;-61
2022/08/31 04:09:27;;;;;;;9.05;8.45;;;;;;;;;;5037771;28;20124;-60
2022/08/31 04:11:52;;;;;;;11.00;10.30;;;;;;;;;;5036812;28;20611;-61
2022/08/31 04:14:17;;;;;;;11.27;10.57;;;;;;;;;;5039591;28;20032;-60
2022/08/31 04:16:43;;;;;;;11.52;10.82;;;;;;;;;;5032282;28;20044;-60
2022/08/31 04:19:08;;;;;;;9.43;8.82;;;;;;;;;;5036840;28;20037;-60
2022/08/31 04:21:34;;;;;;;11.60;10.90;;;;;;;;;;5038269;28;20059;-60
2022/08/31 04:24:00;;;;;;;11.57;10.88;;;;;;;;;;5035309;28;20431;-60
2022/08/31 04:26:34;;;;;;;11.35;10.65;;;;;;;;;;5038160;28;20057;-59
2022/08/31 04:29:01;;;;;;;11.20;10.50;;;;;;;;;;5036593;28;20949;-59
2022/08/31 04:31:27;;;;;;;12.00;11.30;;;;;;;;;;5036648;28;20111;-60
2022/08/31 04:33:55;;;;;;;13.32;12.52;;;;;;;;;;5035760;28;20033;-60
2022/08/31 04:36:22;;;;;;;13.82;12.90;;;;;;;;;;5036150;28;20537;-60
2022/08/31 04:38:50;;;;;;;12.32;11.57;;;;;;;;;;5044779;28;20076;-60
2022/08/31 04:41:18;;;;;;;12.38;11.68;;;;;;;;;;5036254;28;20606;-60
2022/08/31 04:43:46;;;;;;;13.30;12.52;;;;;;;;;;5035318;28;20033;-60
2022/08/31 04:46:12;;;;;;;14.35;13.55;;;;;;;;;;5030202;28;20053;-60
2022/08/31 04:48:38;;;;;;;13.70;12.90;;;;;;;;;;5035726;28;20429;-61
2022/08/31 04:51:09;;;;;;;15.35;14.45;;;;;;;;;;5032067;28;20523;-61
2022/08/31 04:53:35;;;;;;;12.65;11.90;;;;;;;;;;5035980;28;20025;-61
2022/08/31 04:56:15;;;;;;;19.05;17.95;;;;;;;;;;5037758;28;20531;-61
2022/08/31 04:58:49;;;;;;;17.10;16.10;;;;;;;;;;5034601;28;20036;-61
2022/08/31 05:01:18;;;;;;;16.58;15.68;;;;;;;;;;5033584;28;20033;-60
2022/08/31 05:03:43;;;;;;;17.65;16.65;;;;;;;;;;5036886;28;20453;-61
2022/08/31 05:06:14;;;;;;;19.48;18.38;;;;;;;;;;5033664;28;20148;-61
2022/08/31 05:08:40;;;;;;;18.58;17.58;;;;;;;;;;5035229;28;20064;-61
2022/08/31 05:11:15;;;;;;;19.08;17.98;;;;;;;;;;5035968;28;20052;-61
2022/08/31 05:13:41;;;;;;;17.80;16.80;;;;;;;;;;5031706;28;20029;-59
2022/08/31 05:16:09;;;;;;;20.17;19.08;;;;;;;;;;5033117;28;20075;-60
2022/08/31 05:18:36;;;;;;;20.70;19.50;;;;;;;;;;5035669;28;20029;-59
2022/08/31 05:21:15;;;;;;;22.17;20.35;;;;;;;;;;5036887;28;20572;-60
2022/08/31 05:23:44;;;;;;;21.23;20.08;;;;;;;;;;5033201;28;20166;-61
2022/08/31 05:26:16;;;;;;;24.23;22.92;;;;;;;;;;5037211;28;20490;-61
2022/08/31 05:28:41;;;;;;;25.85;24.48;;;;;;;;;;5034574;28;20033;-60
2022/08/31 05:31:06;;;;;;;24.67;23.27;;;;;;;;;;5036982;28;20086;-61
2022/08/31 05:33:32;;;;;;;25.83;24.35;;;;;;;;;;5034961;28;20033;-60
2022/08/31 05:36:00;;;;;;;25.70;24.30;;;;;;;;;;5035660;28;20176;-60
2022/08/31 05:38:25;;;;;;;25.88;24.48;;;;;;;;;;5035235;28;20038;-60
2022/08/31 05:40:52;;;;;;;22.75;21.55;;;;;;;;;;5035702;28;20036;-60
2022/08/31 05:43:18;;;;;;;25.30;23.90;;;;;;;;;;5035805;28;20033;-61
2022/08/31 05:45:44;;;;;;;23.73;22.33;;;;;;;;;;5034736;28;20112;-60
2022/08/31 05:48:09;;;;;;;25.80;24.40;;;;;;;;;;5037025;28;20040;-60
2022/08/31 05:50:36;;;;;;;25.25;23.85;;;;;;;;;;5036373;28;20034;-61
2022/08/31 05:53:02;;;;;;;21.98;20.77;;;;;;;;;;5035436;28;20029;-60
2022/08/31 05:55:28;;;;;;;24.33;21.75;;;;;;;;;;5032822;28;20041;-60
2022/08/31 05:57:54;;;;;;;26.55;25.05;;;;;;;;;;5034885;28;20033;-61
2022/08/31 06:00:19;;;;;;;25.67;24.27;;;;;;;;;;5034262;28;20029;-60
2022/08/31 06:02:45;;;;;;;27.77;26.23;;;;;;;;;;5036714;28;20040;-59
2022/08/31 06:05:10;;;;;;;26.80;25.20;;;;;;;;;;5039505;28;20437;-59
2022/08/31 06:07:36;;;;;;;26.10;24.35;;;;;;;;;;5037464;28;20034;-60
2022/08/31 06:10:01;;;;;;;27.13;25.58;;;;;;;;;;5040258;28;20021;-61
2022/08/31 06:12:27;;;;;;;26.55;24.80;;;;;;;;;;5036462;28;20041;-61
2022/08/31 06:14:54;;;;;;;24.25;22.95;;;;;;;;;;5038877;28;20025;-60
2022/08/31 06:17:19;;;;;;;24.10;22.70;;;;;;;;;;5038941;28;20040;-60
2022/08/31 06:19:45;;;;;;;23.60;22.27;;;;;;;;;;5042206;28;20144;-60
2022/08/31 06:22:10;;;;;;;24.77;23.45;;;;;;;;;;5038392;28;20029;-60
2022/08/31 06:24:37;;;;;;;25.90;24.45;;;;;;;;;;5042811;28;20049;-60
2022/08/31 06:27:04;;;;;;;27.02;25.60;;;;;;;;;;5039481;28;20026;-61
2022/08/31 06:29:30;;;;;;;27.80;26.35;;;;;;;;;;5039564;28;20053;-61
2022/08/31 06:31:56;;;;;;;26.30;24.90;;;;;;;;;;5039333;28;20068;-61
2022/08/31 06:34:22;;;;;;;27.23;25.60;;;;;;;;;;5037655;28;20030;-61
2022/08/31 06:36:48;;;;;;;25.83;24.45;;;;;;;;;;5038921;28;20045;-61
2022/08/31 06:39:14;;;;;;;26.33;24.92;;;;;;;;;;5040048;28;20062;-58
2022/08/31 06:41:40;;;;;;;26.67;25.25;;;;;;;;;;5039000;28;20069;-59
2022/08/31 06:44:09;;;;;;;28.77;27.25;;;;;;;;;;5037469;28;20076;-59
2022/08/31 06:46:37;;;;;;;52.80;48.58;;;;;;;;;;5035489;28;20071;-59
2022/08/31 06:49:03;;;;;;;62.22;59.03;;;;;;;;;;5040036;28;20056;-59
2022/08/31 06:51:35;;;;;;;64.72;61.35;;;;;;;;;;5037541;28;20112;-59
2022/08/31 06:54:02;;;;;;;35.13;33.30;;;;;;;;;;5034763;28;20042;-59
2022/08/31 06:56:28;;;;;;;62.05;58.70;;;;;;;;;;5037706;28;20375;-59
2022/08/31 06:58:53;;;;;;;77.95;74.00;;;;;;;;;;5044078;28;20037;-59
2022/08/31 07:01:22;;;;;;;67.70;64.20;;;;;;;;;;5039245;28;20122;-59
2022/08/31 07:03:48;;;;;;;82.28;78.13;;;;;;;;;;5038741;28;20045;-59
2022/08/31 07:06:23;;;;;;;64.38;61.10;;;;;;;;;;5040480;28;20557;-60
2022/08/31 07:08:51;;;;;;;106.18;100.80;;;;;;;;;;5038357;28;20037;-60
2022/08/31 07:11:27;;;;;;;111.18;105.43;;;;;;;;;;5037682;28;20485;-61
2022/08/31 07:13:54;;;;;;;69.65;66.15;;;;;;;;;;5038860;28;20045;-62
2022/08/31 07:16:22;;;;;;;81.63;77.55;;;;;;;;;;5035291;28;20033;-63
2022/08/31 07:18:49;;;;;;;50.47;47.92;;;;;;;;;;5039327;28;20056;-63
2022/08/31 07:21:18;;;;;;;73.65;69.97;;;;;;;;;;5038647;28;20083;-63
2022/08/31 07:23:44;;;;;;;51.90;49.28;;;;;;;;;;5040543;28;20060;-63
2022/08/31 07:26:13;;;;;;;110.25;104.75;;;;;;;;;;5040659;28;20029;-63
2022/08/31 07:28:42;;;;;;;90.47;85.80;;;;;;;;;;5039617;28;20057;-64
2022/08/31 07:31:08;;;;;;;116.50;110.70;;;;;;;;;;5036635;28;20037;-66
2022/08/31 07:33:37;;;;;;;72.78;69.07;;;;;;;;;;5038272;28;20455;-65
2022/08/31 07:36:05;;;;;;;58.92;55.90;;;;;;;;;;5037742;28;20046;-66
2022/08/31 07:43:58;;;;;;;37.47;35.45;;;;;;;;;;5037133;28;20033;-68
2022/08/31 07:46:28;;;;;;;36.42;34.55;;;;;;;;;;5036901;28;20054;-68
2022/08/31 07:48:55;;;;;;;33.92;32.17;;;;;;;;;;5037856;28;20187;-68
2022/08/31 07:51:22;;;;;;;35.75;33.90;;;;;;;;;;5036976;28;20037;-68
2022/08/31 07:53:49;;;;;;;38.80;36.72;;;;;;;;;;5038145;28;20029;-68
2022/08/31 07:56:18;;;;;;;31.10;29.48;;;;;;;;;;5037967;28;20059;-69
2022/08/31 07:58:44;;;;;;;31.92;30.25;;;;;;;;;;5041005;28;20439;-68
2022/08/31 08:01:09;;;;;;;33.60;31.83;;;;;;;;;;5038059;28;20033;-68
2022/08/31 08:03:35;;;;;;;32.30;30.60;;;;;;;;;;5038786;28;20056;-68
2022/08/31 08:06:00;;;;;;;33.28;31.58;;;;;;;;;;5037247;28;20151;-68
2022/08/31 08:08:26;;;;;;;33.67;31.90;;;;;;;;;;5039411;28;20029;-67
2022/08/31 08:10:51;;;;;;;35.10;33.28;;;;;;;;;;5035540;28;20051;-68
2022/08/31 08:13:18;;;;;;;45.78;43.38;;;;;;;;;;5038338;28;20366;-68
2022/08/31 08:15:44;;;;;;;42.08;39.90;;;;;;;;;;5038855;28;20046;-68
2022/08/31 08:18:12;;;;;;;40.92;38.83;;;;;;;;;;5037467;28;20418;-68
2022/08/31 08:20:38;;;;;;;45.42;43.10;;;;;;;;;;5040597;28;20033;-68
2022/08/31 08:23:13;;;;;;;43.45;41.25;;;;;;;;;;5037192;28;20132;-68
2022/08/31 08:25:38;;;;;;;49.63;47.05;;;;;;;;;;5037371;28;20029;-68
2022/08/31 08:28:03;;;;;;;57.40;54.47;;;;;;;;;;5036996;28;20041;-68
2022/08/31 08:30:29;;;;;;;59.08;55.95;;;;;;;;;;5038106;28;20037;-68
2022/08/31 08:32:54;;;;;;;55.97;53.13;;;;;;;;;;5035852;28;20672;-68
2022/08/31 08:35:20;;;;;;;53.28;50.47;;;;;;;;;;5035080;28;20128;-68
2022/08/31 08:37:46;;;;;;;54.03;51.28;;;;;;;;;;5036789;28;20033;-68
2022/08/31 08:40:27;;;;;;;53.65;50.95;;;;;;;;;;5037149;28;20712;-68
2022/08/31 08:42:52;;;;;;;;;;;;;;;;;;5044460;28;20036;-68
2022/08/31 08:45:18;;;;;;;49.60;47.03;;;;;;;;;;5039273;28;19913;-68
2022/08/31 08:47:48;;;;;;;56.33;53.47;;;;;;;;;;5033253;28;20043;-68
2022/08/31 08:50:14;;;;;;;63.30;60.13;;;;;;;;;;5035940;28;20029;-68
2022/08/31 08:52:43;;;;;;;61.58;58.42;;;;;;;;;;5036855;28;20036;-68
2022/08/31 08:55:25;;;;;;;58.53;55.53;;;;;;;;;;5035568;28;20033;-68
2022/08/31 08:57:50;;;;;;;57.00;54.00;;;;;;;;;;5027288;28;20036;-68
2022/08/31 09:00:23;;;;;;;51.67;49.00;;;;;;;;;;5035715;28;20033;-68
2022/08/31 09:03:00;;;;;;;55.70;52.83;;;;;;;;;;5034116;28;20449;-69
2022/08/31 09:05:58;;;;;;;67.13;63.63;;;;;;;;;;5038545;28;20115;-68
2022/08/31 09:08:42;;;;;;;60.58;57.50;;;;;;;;;;5035551;28;20468;-68
2022/08/31 09:11:16;;;;;;;53.33;50.58;;;;;;;;;;5039326;28;20324;-67
2022/08/31 09:14:06;;;;;;;54.15;51.38;;;;;;;;;;5033873;28;20040;-68
2022/08/31 09:16:47;;;;;;;40.53;38.38;;;;;;;;;;5033730;28;20038;-68
2022/08/31 09:19:16;;;;;;;44.10;41.85;;;;;;;;;;5035369;28;20585;-67
2022/08/31 09:21:46;;;;;;;47.72;45.22;;;;;;;;;;5040117;28;20357;-67
2022/08/31 09:24:18;;;;;;;46.35;43.92;;;;;;;;;;5035842;28;20120;-67
2022/08/31 09:27:19;;;;;;;43.53;41.25;;;;;;;;;;5037558;28;20025;-68
2022/08/31 09:29:46;;;;;;;47.90;45.42;;;;;;;;;;5036151;28;20032;-68
2022/08/31 09:32:21;;;;;;;45.30;42.95;;;;;;;;;;5035671;28;20095;-68
2022/08/31 09:34:59;;;;;;;41.45;39.28;;;;;;;;;;5036132;28;20041;-68
2022/08/31 09:37:32;;;;;;;38.65;36.65;;;;;;;;;;5034354;28;20116;-68
2022/08/31 09:40:18;;;;;;;49.42;46.88;;;;;;;;;;5034519;28;20025;-68
2022/08/31 09:42:46;;;;;;;50.45;47.75;;;;;;;;;;5036339;28;20152;-68
2022/08/31 09:45:34;;;;;;;41.45;39.22;;;;;;;;;;5035619;28;20029;-68
2022/08/31 09:48:02;;;;;;;42.97;40.75;;;;;;;;;;5036208;28;20099;-68
2022/08/31 09:50:44;;;;;;;49.55;47.03;;;;;;;;;;5036492;28;20116;-69
2022/08/31 09:56:15;;;;;;;57.33;54.42;;;;;;;;;;5034493;28;20043;-67
2022/08/31 09:59:00;;;;;;;57.00;54.10;;;;;;;;;;5038992;28;20048;-65
2022/08/31 10:01:43;;;;;;;62.05;58.85;;;;;;;;;;5040890;28;20040;-67
2022/08/31 10:04:25;;;;;;;62.63;59.38;;;;;;;;;;5035764;28;20045;-66
2022/08/31 10:07:28;;;;;;;56.47;53.58;;;;;;;;;;5036152;28;20037;-65
2022/08/31 10:09:59;;;;;;;57.17;54.28;;;;;;;;;;5035781;28;20168;-65
2022/08/31 10:12:31;;;;;;;49.83;47.20;;;;;;;;;;5038096;28;20854;-65
2022/08/31 10:15:02;;;;;;;39.80;37.75;;;;;;;;;;5033641;28;20044;-64
2022/08/31 10:17:39;;;;;;;45.10;42.75;;;;;;;;;;5033983;28;20029;-64
2022/08/31 10:20:15;;;;;;;39.88;37.65;;;;;;;;;;5035784;28;20064;-65
2022/08/31 10:22:49;;;;;;;42.33;40.15;;;;;;;;;;5034925;28;20062;-64
2022/08/31 10:25:32;;;;;;;39.00;36.95;;;;;;;;;;5036534;28;20017;-64
2022/08/31 10:28:10;;;;;;;39.10;37.05;;;;;;;;;;5032089;28;20041;-64
2022/08/31 10:30:58;;;;;;;29.10;27.55;;;;;;;;;;5034040;28;20340;-63
2022/08/31 10:36:59;;;;;;;30.02;28.42;;;;;;;;;;5040975;28;20088;-63
2022/08/31 10:39:47;;;;;;;34.45;32.65;;;;;;;;;;5034912;28;20405;-63
2022/08/31 10:42:30;;;;;;;25.55;24.17;;;;;;;;;;5031470;28;20021;-64
2022/08/31 10:45:03;;;;;;;32.00;30.30;;;;;;;;;;5034619;28;20104;-64
2022/08/31 10:47:29;;;;;;;46.58;44.15;;;;;;;;;;5035315;28;20029;-64
2022/08/31 10:49:58;;;;;;;26.70;25.30;;;;;;;;;;5037441;28;20439;-64
2022/08/31 10:52:41;;;;;;;27.15;25.75;;;;;;;;;;5037378;28;20029;-65
2022/08/31 10:55:13;;;;;;;25.33;23.92;;;;;;;;;;5036922;28;20668;-64
2022/08/31 10:57:59;;;;;;;25.95;24.55;;;;;;;;;;5040635;28;20041;-64
2022/08/31 11:00:47;;;;;;;31.55;29.95;;;;;;;;;;5038716;28;20025;-64
2022/08/31 11:03:21;;;;;;;43.70;41.50;;;;;;;;;;5036243;28;20536;-64
2022/08/31 11:06:07;;;;;;;36.35;34.47;;;;;;;;;;5036318;28;20047;-64
2022/08/31 11:09:00;;;;;;;35.13;33.28;;;;;;;;;;5021916;28;20029;-64
2022/08/31 11:11:46;;;;;;;29.17;27.65;;;;;;;;;;5039447;28;20466;-64
2022/08/31 11:14:33;;;;;;;47.70;45.20;;;;;;;;;;5039225;28;20738;-64
2022/08/31 11:17:17;;;;;;;40.40;38.25;;;;;;;;;;5037461;28;20025;-65
2022/08/31 11:19:59;;;;;;;46.17;43.83;;;;;;;;;;5041072;28;20037;-65
2022/08/31 11:22:33;;;;;;;37.80;35.80;;;;;;;;;;5035685;28;20029;-66
2022/08/31 11:25:06;;;;;;;38.58;36.58;;;;;;;;;;5038518;28;20024;-65
2022/08/31 11:27:37;;;;;;;29.17;27.50;;;;;;;;;;5039582;28;20033;-65
2022/08/31 11:30:11;;;;;;;26.42;24.92;;;;;;;;;;5037758;28;20048;-66
2022/08/31 11:32:49;;;;;;;35.40;33.45;;;;;;;;;;5038025;28;20041;-65
2022/08/31 11:36:05;;;;;;;32.55;30.85;;;;;;;;;;5039741;28;20412;-65
2022/08/31 11:38:51;;;;;;;21.40;20.20;;;;;;;;;;5041972;28;20068;-65
2022/08/31 11:41:35;;;;;;;23.52;22.23;;;;;;;;;;5038644;28;20028;-66
2022/08/31 11:44:03;;;;;;;39.42;37.40;;;;;;;;;;5037798;28;20037;-66
2022/08/31 11:46:41;;;;;;;30.27;28.67;;;;;;;;;;5037668;28;20048;-65
2022/08/31 11:49:09;;;;;;;29.70;28.10;;;;;;;;;;5034261;28;20120;-65
2022/08/31 11:51:41;;;;;;;27.67;26.23;;;;;;;;;;5036522;28;20176;-65
2022/08/31 11:54:14;;;;;;;34.15;31.98;;;;;;;;;;5035163;28;20041;-65
2022/08/31 11:56:44;;;;;;;26.02;24.55;;;;;;;;;;5039735;28;20191;-66
2022/08/31 11:59:30;;;;;;;29.98;28.38;;;;;;;;;;5039284;28;20272;-66
2022/08/31 12:02:02;;;;;;;25.10;23.77;;;;;;;;;;5046872;28;20029;-66
2022/08/31 12:04:44;;;;;;;28.33;26.83;;;;;;;;;;5037090;28;20134;-66
2022/08/31 12:07:14;;;;;;;42.33;39.92;;;;;;;;;;5039937;28;20033;-66
2022/08/31 12:09:52;;;;;;;33.90;32.15;;;;;;;;;;5039247;28;20439;-66
2022/08/31 12:12:56;;;;;;;28.95;27.20;;;;;;;;;;5037366;28;20402;-66
2022/08/31 12:15:59;;;;;;;24.55;23.15;;;;;;;;;;5037568;28;20056;-65
2022/08/31 12:18:49;;;;;;;19.08;18.00;;;;;;;;;;5035417;28;20052;-65
2022/08/31 12:24:37;;;;;;;17.48;16.48;;;;;;;;;;5036440;28;20040;-65
2022/08/31 12:27:13;;;;;;;28.08;26.58;;;;;;;;;;5034738;28;20098;-65
2022/08/31 12:29:41;;;;;;;15.00;14.10;;;;;;;;;;5039078;28;20087;-66
2022/08/31 12:32:34;;;;;;;15.02;14.13;;;;;;;;;;5038611;28;20040;-65
2022/08/31 12:35:22;;;;;;;14.38;13.57;;;;;;;;;;5036755;28;20048;-65
2022/08/31 12:38:15;;;;;;;14.85;13.95;;;;;;;;;;5040137;28;20192;-65
2022/08/31 12:40:55;;;;;;;24.27;22.95;;;;;;;;;;5036428;28;20439;-66
2022/08/31 12:43:34;;;;;;;18.88;17.77;;;;;;;;;;5038714;28;20061;-65
2022/08/31 12:46:15;;;;;;;36.92;35.03;;;;;;;;;;5038308;28;20454;-66
2022/08/31 12:48:46;;;;;;;16.27;15.38;;;;;;;;;;5044561;28;20045;-63
2022/08/31 12:51:41;;;;;;;18.63;17.52;;;;;;;;;;5039834;28;20037;-66
2022/08/31 12:54:15;;;;;;;26.42;24.83;;;;;;;;;;5036010;28;20053;-66
2022/08/31 12:56:52;;;;;;;25.15;23.75;;;;;;;;;;5036093;28;20040;-63
2022/08/31 12:59:34;;;;;;;24.13;22.73;;;;;;;;;;5038086;28;20405;-63
2022/08/31 13:02:00;;;;;;;23.13;21.85;;;;;;;;;;5037217;28;20534;-64
2022/08/31 13:04:26;;;;;;;34.20;32.40;;;;;;;;;;5034608;28;20120;-64
2022/08/31 13:06:52;;;;;;;19.65;18.55;;;;;;;;;;5035198;28;20041;-64
2022/08/31 13:09:27;;;;;;;21.63;20.42;;;;;;;;;;5036767;28;20031;-63
2022/08/31 13:11:55;;;;;;;20.10;18.98;;;;;;;;;;5038728;28;20411;-63
2022/08/31 13:14:27;;;;;;;20.58;19.45;;;;;;;;;;5036023;28;20036;-64
2022/08/31 13:17:09;;;;;;;20.75;19.65;;;;;;;;;;5038606;28;20044;-65
2022/08/31 13:19:35;;;;;;;21.50;20.17;;;;;;;;;;5036110;28;20041;-63
2022/08/31 13:22:15;;;;;;;20.98;19.88;;;;;;;;;;5036099;28;20451;-63
2022/08/31 13:24:44;;;;;;;22.08;20.88;;;;;;;;;;5036282;28;20044;-62
2022/08/31 13:27:17;;;;;;;24.30;23.00;;;;;;;;;;5039115;28;20044;-63
2022/08/31 13:29:44;;;;;;;26.85;25.45;;;;;;;;;;5036554;28;20071;-60
2022/08/31 13:32:33;;;;;;;25.73;24.35;;;;;;;;;;5039998;28;20024;-62
2022/08/31 13:35:03;;;;;;;22.90;21.70;;;;;;;;;;5026186;28;20119;-62
2022/08/31 13:37:34;;;;;;;22.03;20.83;;;;;;;;;;5034618;28;20033;-62
2022/08/31 13:40:07;;;;;;;24.13;22.83;;;;;;;;;;5039983;28;20355;-62
2022/08/31 13:42:41;;;;;;;24.55;23.15;;;;;;;;;;5035637;28;20055;-63
2022/08/31 13:45:26;;;;;;;21.65;20.45;;;;;;;;;;5038153;28;20026;-64
2022/08/31 13:47:55;;;;;;;22.83;21.58;;;;;;;;;;5035406;28;20037;-63
2022/08/31 13:50:22;;;;;;;25.48;24.08;;;;;;;;;;5035271;28;20021;-61
2022/08/31 13:52:50;;;;;;;26.23;24.83;;;;;;;;;;5036066;28;20530;-62
2022/08/31 13:55:42;;;;;;;26.08;24.67;;;;;;;;;;5037514;28;20025;-62
2022/08/31 13:58:24;;;;;;;26.10;24.52;;;;;;;;;;5029050;28;20045;-62
2022/08/31 14:00:54;;;;;;;24.38;23.08;;;;;;;;;;5038895;28;20108;-62
2022/08/31 14:03:57;;;;;;;28.20;26.70;;;;;;;;;;5035580;28;20134;-61
2022/08/31 14:06:22;;;;;;;25.25;23.90;;;;;;;;;;5037997;28;20043;-62
2022/08/31 14:09:04;;;;;;;29.95;28.38;;;;;;;;;;5036823;28;20029;-62
2022/08/31 14:11:32;;;;;;;30.13;28.52;;;;;;;;;;5034501;28;20171;-61
2022/08/31 14:14:07;;;;;;;24.63;23.33;;;;;;;;;;5035158;28;20111;-62
2022/08/31 14:16:37;;;;;;;25.02;23.70;;;;;;;;;;5036541;28;20045;-62
2022/08/31 14:19:03;;;;;;;28.25;26.77;;;;;;;;;;5038334;28;20041;-62
2022/08/31 14:21:33;;;;;;;27.45;26.00;;;;;;;;;;5034521;28;20034;-63
2022/08/31 14:24:01;;;;;;;26.58;25.17;;;;;;;;;;5035158;28;20625;-61
2022/08/31 14:26:35;;;;;;;26.13;24.73;;;;;;;;;;5038531;28;20112;-62
2022/08/31 14:29:09;;;;;;;28.00;26.50;;;;;;;;;;5039242;28;20053;-62
2022/08/31 14:31:47;;;;;;;25.95;24.52;;;;;;;;;;5045454;28;20036;-62
2022/08/31 14:34:19;;;;;;;29.70;28.10;;;;;;;;;;5040053;28;20032;-62
2022/08/31 14:36:52;;;;;;;28.10;26.60;;;;;;;;;;5038837;28;20351;-62
2022/08/31 14:39:19;;;;;;;30.85;29.05;;;;;;;;;;5039676;28;20033;-62
2022/08/31 14:41:45;;;;;;;27.30;25.77;;;;;;;;;;5039153;28;20036;-62
2022/08/31 14:44:12;;;;;;;28.73;27.23;;;;;;;;;;5039998;28;20089;-62
2022/08/31 14:46:39;;;;;;;29.15;27.55;;;;;;;;;;5041739;28;20033;-62
2022/08/31 14:49:06;;;;;;;30.35;28.75;;;;;;;;;;5038311;28;20442;-62
2022/08/31 14:51:32;;;;;;;30.58;28.98;;;;;;;;;;5039742;28;20029;-64
2022/08/31 14:53:59;;;;;;;27.73;26.27;;;;;;;;;;5041119;28;20036;-64
2022/08/31 14:56:31;;;;;;;28.13;26.65;;;;;;;;;;5042933;28;20038;-62
2022/08/31 14:59:11;;;;;;;28.90;27.40;;;;;;;;;;5037921;28;20102;-61
2022/08/31 15:01:38;;;;;;;26.53;25.00;;;;;;;;;;5041682;28;20037;-61
2022/08/31 15:04:05;;;;;;;30.75;29.05;;;;;;;;;;5039130;28;20087;-62